Time;durP1;ratioP1;P1;durP2;ratioP2;P2;SDS_P1;SDS_P2;PMS_P1;PMS_P2;Temp;Humidity;BMP_temperature;BMP_pressure;BME280_temperature;BME280_humidity;BME280_pressure;Samples;Min_cycle;Max_cycle;Signal;HPM_P1;HPM_P2
2021/07/12 00:00:57;;;;;;;10.98;5.97;;;20.00;99.90;;;;;;4188967;28;20070;-63
2021/07/12 00:02:59;;;;;;;8.30;5.78;;;20.00;99.90;;;;;;4188439;28;20827;-61
2021/07/12 00:05:01;;;;;;;7.22;5.53;;;20.00;99.90;;;;;;4187932;28;20751;-61
2021/07/12 00:07:02;;;;;;;7.82;5.60;;;19.90;99.90;;;;;;4189496;28;20037;-62
2021/07/12 00:09:04;;;;;;;11.95;5.90;;;19.90;99.90;;;;;;4188608;28;20074;-63
2021/07/12 00:11:06;;;;;;;10.02;6.03;;;19.90;99.90;;;;;;4188695;28;20102;-62
2021/07/12 00:13:07;;;;;;;6.60;5.70;;;19.90;99.90;;;;;;4189246;28;20078;-63
2021/07/12 00:15:10;;;;;;;8.50;5.53;;;19.90;99.90;;;;;;4201410;28;20526;-62
2021/07/12 00:17:11;;;;;;;10.38;5.93;;;19.90;99.90;;;;;;4205458;28;20044;-62
2021/07/12 00:19:13;;;;;;;9.82;6.50;;;19.90;99.90;;;;;;4205477;28;20438;-63
2021/07/12 00:21:14;;;;;;;11.55;6.88;;;19.80;99.90;;;;;;4205373;28;20032;-62
2021/07/12 00:23:15;;;;;;;11.38;7.53;;;19.80;99.90;;;;;;4205821;28;20414;-62
2021/07/12 00:25:18;;;;;;;10.80;7.15;;;19.80;99.90;;;;;;4205339;28;20808;-61
2021/07/12 00:27:19;;;;;;;10.75;6.85;;;19.70;99.90;;;;;;4205977;28;20036;-62
2021/07/12 00:29:21;;;;;;;11.25;7.03;;;19.60;99.90;;;;;;4206721;28;20061;-62
2021/07/12 00:31:23;;;;;;;12.45;9.45;;;19.50;99.90;;;;;;4205898;28;20048;-61
2021/07/12 00:33:24;;;;;;;13.57;8.82;;;19.40;99.90;;;;;;4205283;28;20093;-63
2021/07/12 00:35:26;;;;;;;12.52;8.15;;;19.40;99.90;;;;;;4196363;28;20052;-62
2021/07/12 00:37:27;;;;;;;12.75;6.68;;;19.30;99.90;;;;;;4189504;28;20427;-62
2021/07/12 00:39:28;;;;;;;16.05;6.32;;;19.20;99.90;;;;;;4187906;28;20025;-61
2021/07/12 00:41:29;;;;;;;9.63;6.13;;;19.20;99.90;;;;;;4188592;28;20070;-62
2021/07/12 00:43:31;;;;;;;9.35;6.07;;;19.10;99.90;;;;;;4188772;28;20033;-63
2021/07/12 00:45:34;;;;;;;9.02;5.90;;;19.20;99.90;;;;;;4188535;28;20040;-62
2021/07/12 00:47:35;;;;;;;11.77;7.05;;;19.20;99.90;;;;;;4188555;28;20098;-62
2021/07/12 00:49:37;;;;;;;9.40;6.70;;;19.20;99.90;;;;;;4188378;28;20511;-62
2021/07/12 00:51:38;;;;;;;9.77;6.53;;;19.30;99.90;;;;;;4188657;28;20094;-61
2021/07/12 00:53:39;;;;;;;7.68;6.63;;;19.30;99.90;;;;;;4188604;28;20037;-61
2021/07/12 00:55:46;;;;;;;7.15;5.97;;;19.30;99.90;;;;;;4188794;28;20036;-62
2021/07/12 00:57:48;;;;;;;13.23;7.15;;;19.40;99.90;;;;;;4188640;28;20438;-62
2021/07/12 00:59:51;;;;;;;9.60;6.35;;;19.40;99.90;;;;;;4188552;28;20025;-62
2021/07/12 01:01:53;;;;;;;14.88;8.18;;;19.40;99.90;;;;;;4188050;28;20033;-62
2021/07/12 01:03:54;;;;;;;6.72;5.78;;;19.40;99.90;;;;;;4188326;28;20033;-63
2021/07/12 01:05:56;;;;;;;8.43;6.10;;;19.40;99.90;;;;;;4188460;28;20484;-63
2021/07/12 01:08:00;;;;;;;8.93;6.70;;;19.20;99.90;;;;;;4188868;28;20090;-62
2021/07/12 01:10:03;;;;;;;8.75;6.68;;;19.10;99.90;;;;;;4188618;28;20070;-61
2021/07/12 01:12:10;;;;;;;10.60;6.15;;;19.00;99.90;;;;;;4188485;28;20086;-60
2021/07/12 01:14:26;;;;;;;8.45;6.32;;;18.90;99.90;;;;;;4188297;28;20055;-62
2021/07/12 01:16:56;;;;;;;11.52;6.28;;;18.80;99.90;;;;;;4188074;28;20037;-62
2021/07/12 01:19:18;;;;;;;9.02;6.68;;;18.70;99.90;;;;;;4191604;28;20067;-62
2021/07/12 01:22:12;;;;;;;8.93;6.63;;;18.80;99.90;;;;;;4191148;28;20547;-63
2021/07/12 01:24:30;;;;;;;9.27;6.50;;;18.70;99.90;;;;;;4189541;28;20048;-63
2021/07/12 01:26:52;;;;;;;10.32;6.70;;;18.70;99.90;;;;;;4191678;28;20078;-62
2021/07/12 01:29:09;;;;;;;8.30;6.35;;;18.80;99.90;;;;;;4191046;28;20020;-62
2021/07/12 01:31:28;;;;;;;9.43;6.68;;;18.70;99.90;;;;;;4190212;28;20265;-63
2021/07/12 01:33:39;;;;;;;11.20;6.78;;;18.70;99.90;;;;;;4191200;28;20036;-62
2021/07/12 01:36:05;;;;;;;7.53;6.40;;;18.70;99.90;;;;;;4191576;28;20056;-62
2021/07/12 01:38:15;;;;;;;9.15;6.40;;;18.70;99.90;;;;;;4191508;28;20086;-63
2021/07/12 01:40:25;;;;;;;10.27;8.07;;;18.80;99.90;;;;;;4191325;28;20750;-62
2021/07/12 01:42:35;;;;;;;11.90;6.40;;;18.80;99.90;;;;;;4191118;28;20078;-63
2021/07/12 01:44:39;;;;;;;11.25;6.30;;;18.80;99.90;;;;;;4191058;28;20037;-63
2021/07/12 01:46:52;;;;;;;12.80;6.78;;;18.80;99.90;;;;;;4190760;28;20036;-63
2021/07/12 01:49:08;;;;;;;8.25;6.30;;;18.80;99.90;;;;;;4190987;28;20028;-63
2021/07/12 01:51:12;;;;;;;11.10;7.00;;;18.80;99.90;;;;;;4191170;28;20044;-63
2021/07/12 01:53:50;;;;;;;10.73;6.63;;;18.80;99.90;;;;;;4190736;28;20431;-63
2021/07/12 01:56:03;;;;;;;9.73;6.13;;;18.70;99.90;;;;;;4189033;28;20049;-63
2021/07/12 01:58:35;;;;;;;10.70;6.35;;;18.70;99.90;;;;;;4190863;28;20036;-62
2021/07/12 02:00:40;;;;;;;10.20;6.50;;;18.70;99.90;;;;;;4191059;28;20032;-63
2021/07/12 02:02:44;;;;;;;10.20;7.57;;;18.60;99.90;;;;;;4191197;28;20044;-63
2021/07/12 02:04:50;;;;;;;12.77;8.07;;;18.50;99.90;;;;;;4191289;28;20024;-63
2021/07/12 02:06:53;;;;;;;10.23;7.95;;;18.50;99.90;;;;;;4191086;28;20106;-62
2021/07/12 02:08:56;;;;;;;15.60;7.95;;;18.40;99.90;;;;;;4191208;28;20032;-62
2021/07/12 02:10:59;;;;;;;10.98;8.63;;;18.40;99.90;;;;;;4189641;28;20076;-63
2021/07/12 02:13:00;;;;;;;11.80;9.45;;;18.30;99.90;;;;;;4190713;28;20469;-64
2021/07/12 02:15:04;;;;;;;13.80;8.48;;;18.30;99.90;;;;;;4190992;28;20040;-63
2021/07/12 02:17:09;;;;;;;9.13;5.88;;;18.20;99.90;;;;;;4190116;28;20109;-62
2021/07/12 02:19:11;;;;;;;10.32;6.85;;;18.20;99.90;;;;;;4190468;28;20748;-63
2021/07/12 02:21:15;;;;;;;11.57;6.70;;;18.10;99.90;;;;;;4189878;28;20032;-63
2021/07/12 02:23:17;;;;;;;8.25;6.68;;;18.10;99.90;;;;;;4189963;28;20033;-62
2021/07/12 02:25:18;;;;;;;15.73;7.30;;;18.00;99.90;;;;;;4189122;28;20046;-62
2021/07/12 02:27:23;;;;;;;8.70;6.93;;;17.90;99.90;;;;;;4190488;28;20117;-63
2021/07/12 02:29:26;;;;;;;13.32;7.85;;;17.90;99.90;;;;;;4188643;28;20044;-63
2021/07/12 02:31:29;;;;;;;12.10;7.20;;;17.80;99.90;;;;;;4190272;28;20029;-64
2021/07/12 02:33:31;;;;;;;10.85;7.75;;;17.70;99.90;;;;;;4190203;28;20098;-63
2021/07/12 02:35:34;;;;;;;9.40;7.60;;;17.70;99.90;;;;;;4190126;28;20097;-62
2021/07/12 02:37:40;;;;;;;10.75;8.00;;;17.70;99.90;;;;;;4190439;28;20162;-61
2021/07/12 02:39:46;;;;;;;7.85;6.65;;;17.60;99.90;;;;;;4190641;28;20922;-62
2021/07/12 02:41:48;;;;;;;10.85;7.70;;;17.70;99.90;;;;;;4190228;28;20166;-62
2021/07/12 02:43:50;;;;;;;8.40;6.97;;;17.70;99.90;;;;;;4190658;28;20040;-63
2021/07/12 02:45:52;;;;;;;11.50;7.68;;;17.70;99.90;;;;;;4189887;28;20465;-63
2021/07/12 02:47:54;;;;;;;10.40;7.72;;;17.70;99.90;;;;;;4189822;28;20024;-63
2021/07/12 02:49:55;;;;;;;12.02;7.15;;;17.70;99.90;;;;;;4188710;28;20044;-63
2021/07/12 02:52:00;;;;;;;9.40;6.97;;;17.70;99.90;;;;;;4190120;28;20086;-64
2021/07/12 02:54:04;;;;;;;8.70;6.75;;;17.80;99.90;;;;;;4189955;28;20454;-63
2021/07/12 02:56:05;;;;;;;10.52;7.53;;;17.80;99.90;;;;;;4189394;28;20044;-62
2021/07/12 02:58:07;;;;;;;12.00;7.40;;;17.90;99.90;;;;;;4189534;28;20032;-63
2021/07/12 03:00:10;;;;;;;12.02;7.60;;;18.00;99.90;;;;;;4190159;28;20749;-63
2021/07/12 03:02:11;;;;;;;11.82;8.40;;;18.10;99.90;;;;;;4189472;28;20025;-62
2021/07/12 03:04:12;;;;;;;10.45;6.88;;;18.30;99.90;;;;;;4189694;28;20029;-61
2021/07/12 03:06:15;;;;;;;10.25;7.50;;;18.40;99.90;;;;;;4189605;28;20028;-63
2021/07/12 03:08:35;;;;;;;11.82;7.80;;;18.50;99.90;;;;;;4189813;28;20022;-63
2021/07/12 03:10:44;;;;;;;8.80;6.80;;;18.60;99.90;;;;;;4189635;28;20121;-63
2021/07/12 03:12:55;;;;;;;11.07;7.20;;;18.80;99.90;;;;;;4189633;28;20037;-62
2021/07/12 03:15:07;;;;;;;9.90;7.32;;;18.90;99.90;;;;;;4189692;28;20056;-61
2021/07/12 03:17:12;;;;;;;12.65;7.47;;;19.10;99.90;;;;;;4186974;28;20415;-61
2021/07/12 03:19:21;;;;;;;9.90;7.53;;;19.20;99.90;;;;;;4200928;28;20090;-61
2021/07/12 03:21:25;;;;;;;14.48;7.40;;;19.30;99.90;;;;;;4189700;28;20546;-63
2021/07/12 03:23:29;;;;;;;13.50;8.23;;;19.20;99.90;;;;;;4189298;28;20029;-62
2021/07/12 03:25:35;;;;;;;12.07;7.57;;;19.20;99.90;;;;;;4189408;28;20040;-61
2021/07/12 03:27:37;;;;;;;12.18;7.30;;;19.30;99.90;;;;;;4188987;28;20037;-62
2021/07/12 03:29:40;;;;;;;18.05;7.97;;;19.30;99.90;;;;;;4189220;28;20082;-62
2021/07/12 03:31:43;;;;;;;11.32;7.75;;;19.30;99.90;;;;;;4189003;28;20028;-63
2021/07/12 03:33:45;;;;;;;19.17;8.02;;;19.50;99.90;;;;;;4188981;28;20036;-60
2021/07/12 03:35:48;;;;;;;26.98;9.55;;;19.70;99.90;;;;;;4188917;28;20118;-63
2021/07/12 03:37:51;;;;;;;17.10;9.55;;;19.80;99.90;;;;;;4189142;28;20040;-63
2021/07/12 03:39:53;;;;;;;16.90;8.50;;;19.90;99.90;;;;;;4181038;28;20040;-60
2021/07/12 03:41:57;;;;;;;13.68;8.10;;;20.10;99.90;;;;;;4189253;28;20032;-61
2021/07/12 03:43:59;;;;;;;14.77;9.25;;;20.30;99.90;;;;;;4188906;28;20625;-62
2021/07/12 03:46:01;;;;;;;11.15;8.73;;;20.60;99.90;;;;;;4188726;28;20040;-62
2021/07/12 03:48:03;;;;;;;14.13;7.88;;;20.90;99.90;;;;;;4188504;28;20071;-61
2021/07/12 03:50:06;;;;;;;14.13;7.55;;;21.20;99.90;;;;;;4188528;28;20020;-62
2021/07/12 03:52:08;;;;;;;13.65;7.10;;;21.60;99.90;;;;;;4188772;28;20266;-63
2021/07/12 03:54:09;;;;;;;13.90;7.10;;;22.10;99.90;;;;;;4188784;28;20090;-62
2021/07/12 03:56:10;;;;;;;14.63;6.93;;;22.30;99.90;;;;;;4189622;28;20040;-61
2021/07/12 03:58:11;;;;;;;10.82;6.68;;;22.50;99.90;;;;;;4188637;28;20051;-62
2021/07/12 04:00:22;;;;;;;9.77;5.72;;;22.70;99.90;;;;;;4188603;28;20024;-63
2021/07/12 04:02:24;;;;;;;11.07;6.82;;;22.90;99.90;;;;;;4188707;28;20028;-62
2021/07/12 04:04:25;;;;;;;10.57;6.63;;;23.20;99.90;;;;;;4188736;28;20094;-63
2021/07/12 04:06:28;;;;;;;9.60;7.07;;;23.40;99.90;;;;;;4188920;28;20016;-62
2021/07/12 04:08:29;;;;;;;11.25;7.80;;;23.70;99.90;;;;;;4189399;28;20033;-62
2021/07/12 04:10:30;;;;;;;11.60;6.93;;;23.90;99.90;;;;;;4188948;28;20024;-63
2021/07/12 04:12:31;;;;;;;14.23;6.75;;;24.00;99.90;;;;;;4188837;28;20034;-63
2021/07/12 04:14:33;;;;;;;11.70;7.13;;;24.20;99.90;;;;;;4188533;28;20032;-64
2021/07/12 04:16:34;;;;;;;8.18;6.13;;;24.30;99.90;;;;;;4188956;28;20362;-62
2021/07/12 04:18:36;;;;;;;12.65;7.70;;;24.60;99.90;;;;;;4188953;28;20610;-63
2021/07/12 04:20:38;;;;;;;9.07;7.05;;;24.80;99.90;;;;;;4188610;28;20094;-63
2021/07/12 04:22:39;;;;;;;15.55;6.70;;;25.10;99.90;;;;;;4187500;28;20040;-63
2021/07/12 04:24:40;;;;;;;10.02;7.00;;;25.30;99.60;;;;;;4188610;28;20090;-62
2021/07/12 04:26:41;;;;;;;10.13;6.20;;;25.50;99.30;;;;;;4188536;28;20094;-63
2021/07/12 04:28:43;;;;;;;11.57;7.57;;;25.60;99.00;;;;;;4188106;28;20098;-62
2021/07/12 04:30:44;;;;;;;17.55;7.00;;;25.60;98.80;;;;;;4188444;28;20926;-61
2021/07/12 04:32:45;;;;;;;12.07;6.93;;;25.50;98.60;;;;;;4188008;28;20438;-61
2021/07/12 04:34:46;;;;;;;11.88;7.40;;;25.50;98.50;;;;;;4187554;28;20052;-63
2021/07/12 04:36:47;;;;;;;18.88;8.38;;;25.60;98.40;;;;;;4188069;28;20074;-62
2021/07/12 04:38:48;;;;;;;11.10;7.00;;;25.70;98.00;;;;;;4188891;28;20112;-63
2021/07/12 04:40:49;;;;;;;12.13;7.22;;;26.10;97.90;;;;;;4188348;28;20021;-62
2021/07/12 04:42:51;;;;;;;11.52;7.05;;;26.30;97.50;;;;;;4187756;28;20040;-63
2021/07/12 04:44:52;;;;;;;14.45;7.28;;;26.60;97.10;;;;;;4188275;28;20036;-62
2021/07/12 04:46:53;;;;;;;14.85;7.30;;;26.70;96.80;;;;;;4188603;28;20110;-62
2021/07/12 04:48:54;;;;;;;18.40;7.53;;;26.90;96.50;;;;;;4188415;28;20040;-63
2021/07/12 04:50:55;;;;;;;17.50;6.82;;;27.30;96.30;;;;;;4188138;28;20032;-63
2021/07/12 04:52:56;;;;;;;13.02;7.82;;;27.70;95.70;;;;;;4191101;28;20025;-62
2021/07/12 04:54:58;;;;;;;15.95;8.73;;;28.10;95.30;;;;;;4191666;28;20103;-62
2021/07/12 04:56:59;;;;;;;18.08;8.73;;;28.10;95.00;;;;;;4191860;28;20086;-62
2021/07/12 04:59:04;;;;;;;15.10;10.80;;;27.70;94.90;;;;;;4191155;28;20094;-62
2021/07/12 05:01:05;;;;;;;24.35;10.25;;;27.50;95.00;;;;;;4191465;28;20378;-63
2021/07/12 05:03:06;;;;;;;21.40;12.32;;;27.40;95.20;;;;;;4191090;28;20037;-62
2021/07/12 05:05:09;;;;;;;17.58;12.20;;;27.50;95.10;;;;;;4191665;28;20032;-63
2021/07/12 05:07:11;;;;;;;24.30;12.93;;;27.30;94.90;;;;;;4191507;28;20082;-65
2021/07/12 05:09:13;;;;;;;17.92;9.65;;;27.70;94.80;;;;;;4192225;28;20052;-64
2021/07/12 05:11:14;;;;;;;22.02;10.43;;;28.30;94.10;;;;;;4191369;28;20491;-64
2021/07/12 05:13:15;;;;;;;17.63;10.40;;;28.50;93.80;;;;;;4190905;28;20040;-64
2021/07/12 05:15:16;;;;;;;23.15;10.40;;;29.10;93.40;;;;;;4191761;28;20577;-63
2021/07/12 05:17:18;;;;;;;21.73;11.38;;;29.20;92.70;;;;;;4191223;28;20454;-64
2021/07/12 05:19:19;;;;;;;20.08;10.35;;;29.10;92.60;;;;;;4191412;28;20020;-63
2021/07/12 05:21:20;;;;;;;25.63;10.88;;;28.90;92.50;;;;;;4190640;28;20028;-64
2021/07/12 05:23:21;;;;;;;17.17;10.63;;;29.20;92.50;;;;;;4191046;28;20114;-64
2021/07/12 05:25:22;;;;;;;18.63;10.32;;;29.60;92.00;;;;;;4191242;28;20492;-64
2021/07/12 05:27:23;;;;;;;16.35;9.38;;;29.80;91.80;;;;;;4190966;28;20042;-64
2021/07/12 05:29:25;;;;;;;27.08;10.75;;;29.80;91.70;;;;;;4191245;28;20125;-64
2021/07/12 05:31:26;;;;;;;22.13;8.77;;;29.60;91.80;;;;;;4191242;28;20554;-64
2021/07/12 05:33:30;;;;;;;25.38;8.85;;;29.20;91.60;;;;;;4190959;28;20066;-64
2021/07/12 05:35:31;;;;;;;30.92;9.30;;;29.10;91.80;;;;;;4189585;28;20052;-64
2021/07/12 05:37:32;;;;;;;21.10;9.00;;;29.10;91.90;;;;;;4191410;28;20090;-64
2021/07/12 05:39:34;;;;;;;22.65;7.35;;;29.20;91.90;;;;;;4191070;28;20053;-63
2021/07/12 05:41:35;;;;;;;11.20;7.18;;;29.40;91.80;;;;;;4190625;28;20037;-63
2021/07/12 05:43:37;;;;;;;16.05;7.40;;;29.60;91.30;;;;;;4190930;28;20032;-62
2021/07/12 05:45:38;;;;;;;12.05;6.93;;;29.30;91.10;;;;;;4190711;28;20542;-62
2021/07/12 05:47:39;;;;;;;12.90;6.93;;;29.20;91.10;;;;;;4190894;28;20067;-63
2021/07/12 05:49:40;;;;;;;15.77;7.15;;;29.10;91.00;;;;;;4190581;28;20029;-63
2021/07/12 05:51:41;;;;;;;16.10;6.80;;;28.70;91.00;;;;;;4190600;28;20392;-63
2021/07/12 05:53:42;;;;;;;18.67;7.70;;;28.30;91.00;;;;;;4190835;28;20878;-63
2021/07/12 05:55:44;;;;;;;10.57;7.45;;;28.10;91.20;;;;;;4191059;28;20184;-62
2021/07/12 05:57:45;;;;;;;18.05;7.57;;;28.30;91.30;;;;;;4190038;28;20081;-63
2021/07/12 05:59:46;;;;;;;11.80;6.72;;;28.70;90.90;;;;;;4190866;28;20029;-63
2021/07/12 06:01:47;;;;;;;14.15;7.68;;;28.30;90.90;;;;;;4190665;28;20090;-63
2021/07/12 06:03:48;;;;;;;9.57;7.10;;;28.40;91.10;;;;;;4189998;28;20040;-64
2021/07/12 06:05:52;;;;;;;19.48;7.40;;;27.70;91.50;;;;;;4186681;28;20198;-61
2021/07/12 06:07:54;;;;;;;10.65;7.15;;;27.50;91.90;;;;;;4173907;28;20501;-62
2021/07/12 06:09:55;;;;;;;9.05;7.05;;;27.30;92.10;;;;;;4174138;28;20087;-63
2021/07/12 06:11:56;;;;;;;10.80;7.00;;;26.70;92.60;;;;;;4174172;28;20082;-62
2021/07/12 06:13:57;;;;;;;14.57;7.50;;;26.40;93.10;;;;;;4174151;28;20473;-61
2021/07/12 06:15:58;;;;;;;9.93;7.50;;;26.50;93.20;;;;;;4173752;28;20033;-60
2021/07/12 06:18:00;;;;;;;16.92;7.78;;;26.70;93.20;;;;;;4174247;28;20091;-62
2021/07/12 06:20:01;;;;;;;11.70;7.35;;;26.70;93.10;;;;;;4173940;28;20095;-61
2021/07/12 06:22:03;;;;;;;16.60;8.15;;;26.60;93.20;;;;;;4173594;28;20082;-61
2021/07/12 06:24:04;;;;;;;12.18;7.88;;;26.50;93.40;;;;;;4173806;28;20037;-62
2021/07/12 06:26:05;;;;;;;17.23;8.20;;;26.50;93.50;;;;;;4173971;28;20526;-61
2021/07/12 06:28:08;;;;;;;16.85;8.45;;;26.30;93.50;;;;;;4174009;28;20543;-61
2021/07/12 06:30:09;;;;;;;12.57;8.65;;;26.00;93.80;;;;;;4173672;28;20029;-61
2021/07/12 06:32:11;;;;;;;13.77;8.75;;;25.90;94.20;;;;;;4174156;28;20029;-63
2021/07/12 06:34:12;;;;;;;13.43;8.20;;;25.90;94.40;;;;;;4173709;28;20103;-62
2021/07/12 06:36:13;;;;;;;15.05;8.20;;;25.90;94.50;;;;;;4173659;28;20102;-62
2021/07/12 06:38:14;;;;;;;13.80;8.30;;;25.80;94.60;;;;;;4173290;28;20086;-62
2021/07/12 06:40:15;;;;;;;12.25;7.28;;;25.80;94.90;;;;;;4173904;28;20095;-62
2021/07/12 06:42:16;;;;;;;15.65;8.80;;;26.40;94.50;;;;;;4173789;28;20057;-62
2021/07/12 06:44:18;;;;;;;11.00;7.18;;;26.60;94.20;;;;;;4173766;28;20029;-63
2021/07/12 06:46:19;;;;;;;11.52;7.35;;;26.80;93.90;;;;;;4173461;28;20087;-61
2021/07/12 06:48:20;;;;;;;11.35;7.25;;;26.90;93.70;;;;;;4173303;28;20460;-61
2021/07/12 06:50:22;;;;;;;12.45;7.75;;;26.70;93.90;;;;;;4173366;28;20452;-60
2021/07/12 06:52:23;;;;;;;9.48;7.13;;;26.50;94.10;;;;;;4173140;28;20098;-62
2021/07/12 06:54:24;;;;;;;13.00;7.65;;;26.40;94.30;;;;;;4172928;28;20106;-61
2021/07/12 06:56:26;;;;;;;14.07;7.90;;;26.60;94.40;;;;;;4173149;28;20029;-63
2021/07/12 06:58:27;;;;;;;15.20;7.82;;;26.70;94.10;;;;;;4173529;28;20033;-63
2021/07/12 07:00:31;;;;;;;15.90;7.60;;;26.80;94.00;;;;;;4173182;28;20037;-62
2021/07/12 07:02:35;;;;;;;8.20;7.20;;;26.90;94.10;;;;;;4173519;28;20041;-61
2021/07/12 07:04:37;;;;;;;9.45;7.50;;;27.00;93.90;;;;;;4172869;28;20448;-62
2021/07/12 07:06:39;;;;;;;11.43;7.03;;;26.90;94.00;;;;;;4172626;28;20098;-63
2021/07/12 07:08:40;;;;;;;11.48;7.60;;;26.60;94.30;;;;;;4172284;28;20468;-63
2021/07/12 07:10:41;;;;;;;11.98;6.78;;;26.80;94.30;;;;;;4172818;28;20033;-67
2021/07/12 07:12:42;;;;;;;10.35;6.60;;;26.90;94.20;;;;;;4172978;28;20048;-61
2021/07/12 07:14:43;;;;;;;9.75;6.32;;;27.00;94.20;;;;;;4172079;28;20103;-62
2021/07/12 07:16:44;;;;;;;9.25;5.90;;;27.10;94.00;;;;;;4172728;28;20106;-61
2021/07/12 07:18:45;;;;;;;11.70;6.60;;;27.00;94.10;;;;;;4172817;28;20049;-61
2021/07/12 07:20:47;;;;;;;10.90;6.10;;;27.10;94.20;;;;;;4172732;28;20095;-64
2021/07/12 07:22:48;;;;;;;8.02;6.00;;;27.20;94.20;;;;;;4172122;28;20040;-62
2021/07/12 07:24:51;;;;;;;10.10;6.00;;;27.10;93.90;;;;;;4172909;28;20458;-61
2021/07/12 07:26:52;;;;;;;6.00;5.38;;;27.10;93.50;;;;;;4172843;28;20053;-63
2021/07/12 07:28:55;;;;;;;7.57;5.75;;;27.30;93.30;;;;;;4173013;28;20037;-62
2021/07/12 07:30:57;;;;;;;8.88;5.28;;;27.60;93.10;;;;;;4172795;28;20122;-61
2021/07/12 07:32:58;;;;;;;7.35;5.65;;;27.60;92.50;;;;;;4172183;28;20563;-61
2021/07/12 07:34:59;;;;;;;9.07;4.93;;;27.50;92.10;;;;;;4171936;28;20065;-61
2021/07/12 07:37:00;;;;;;;8.50;5.38;;;27.30;92.00;;;;;;4171996;28;20037;-65
2021/07/12 07:39:02;;;;;;;8.38;5.32;;;27.20;92.10;;;;;;4172723;28;20079;-62
2021/07/12 07:41:03;;;;;;;6.38;5.07;;;27.10;92.00;;;;;;4172832;28;20478;-61
2021/07/12 07:43:04;;;;;;;8.60;4.68;;;27.20;91.90;;;;;;4172776;28;20029;-61
2021/07/12 07:45:07;;;;;;;13.95;5.00;;;27.40;91.90;;;;;;4172819;28;20036;-62
2021/07/12 07:47:10;;;;;;;8.35;5.28;;;27.60;91.60;;;;;;4172119;28;20025;-62
2021/07/12 07:49:11;;;;;;;7.88;5.65;;;27.50;91.40;;;;;;4172276;28;20178;-67
2021/07/12 07:51:12;;;;;;;8.20;5.38;;;27.30;91.40;;;;;;4172514;28;20559;-61
2021/07/12 07:53:13;;;;;;;10.48;4.90;;;27.30;91.60;;;;;;4172613;28;20440;-62
2021/07/12 07:55:15;;;;;;;8.40;5.45;;;27.20;91.40;;;;;;4172049;28;20458;-62
2021/07/12 07:57:17;;;;;;;7.38;5.25;;;27.40;91.10;;;;;;4172460;28;20025;-63
2021/07/12 07:59:18;;;;;;;7.15;5.53;;;27.20;91.30;;;;;;4172964;28;20037;-61
2021/07/12 08:01:20;;;;;;;6.35;5.03;;;27.40;91.40;;;;;;4172320;28;20535;-66
2021/07/12 08:03:21;;;;;;;9.02;5.95;;;27.50;91.20;;;;;;4172154;28;20084;-61
2021/07/12 08:05:22;;;;;;;7.30;4.80;;;27.60;91.20;;;;;;4172256;28;20025;-62
2021/07/12 08:07:23;;;;;;;5.63;4.78;;;27.60;91.10;;;;;;4171988;28;20093;-62
2021/07/12 08:09:24;;;;;;;7.75;4.90;;;27.60;91.00;;;;;;4172374;28;20110;-62
2021/07/12 08:11:26;;;;;;;10.00;5.03;;;27.70;90.90;;;;;;4172082;28;20434;-62
2021/07/12 08:13:27;;;;;;;8.70;5.10;;;27.70;90.70;;;;;;4172037;28;20045;-63
2021/07/12 08:15:28;;;;;;;6.47;5.55;;;27.70;90.70;;;;;;4172250;28;20099;-65
2021/07/12 08:17:29;;;;;;;10.98;4.95;;;27.90;90.70;;;;;;4171798;28;20033;-61
2021/07/12 08:19:30;;;;;;;9.23;5.22;;;27.90;90.60;;;;;;4187177;28;20361;-61
2021/07/12 08:21:32;;;;;;;7.32;5.13;;;27.90;90.80;;;;;;4171081;28;20044;-61
2021/07/12 08:23:33;;;;;;;7.65;4.82;;;27.80;90.70;;;;;;4171479;28;20049;-60
2021/07/12 08:25:34;;;;;;;10.30;5.32;;;27.90;90.80;;;;;;4171799;28;20143;-62
2021/07/12 08:27:36;;;;;;;19.38;5.38;;;28.10;90.90;;;;;;4171245;28;20025;-64
2021/07/12 08:29:37;;;;;;;8.77;5.10;;;28.20;90.70;;;;;;4171852;28;20435;-61
2021/07/12 08:31:38;;;;;;;5.95;4.90;;;28.20;90.60;;;;;;4171091;28;20029;-62
2021/07/12 08:33:40;;;;;;;4.93;4.25;;;28.30;90.40;;;;;;4172056;28;20098;-61
2021/07/12 08:35:41;;;;;;;7.78;4.65;;;28.20;90.40;;;;;;4171419;28;20107;-62
2021/07/12 08:37:48;;;;;;;7.32;4.80;;;28.20;90.20;;;;;;4172054;28;20087;-62
2021/07/12 08:39:49;;;;;;;5.40;4.30;;;28.10;90.20;;;;;;4171817;28;20032;-62
2021/07/12 08:41:52;;;;;;;9.52;5.03;;;28.00;90.30;;;;;;4172345;28;20021;-63
2021/07/12 08:43:54;;;;;;;6.30;4.70;;;28.10;90.30;;;;;;4171866;28;20535;-62
2021/07/12 08:45:55;;;;;;;7.60;4.72;;;28.20;90.40;;;;;;4171614;28;20041;-63
2021/07/12 08:47:56;;;;;;;6.32;4.60;;;28.50;90.50;;;;;;4186533;28;20036;-63
2021/07/12 08:49:58;;;;;;;5.85;4.70;;;28.70;90.40;;;;;;4172350;28;20067;-62
2021/07/12 08:52:03;;;;;;;4.90;4.40;;;28.90;90.10;;;;;;4171202;28;20040;-63
2021/07/12 08:54:04;;;;;;;6.90;5.00;;;28.90;89.50;;;;;;4171999;28;20037;-61
2021/07/12 08:56:06;;;;;;;5.80;4.80;;;29.00;89.70;;;;;;4171971;28;20033;-62
2021/07/12 08:58:23;;;;;;;5.88;4.65;;;29.00;89.80;;;;;;4171843;28;20440;-62
2021/07/12 09:00:53;;;;;;;5.15;4.40;;;29.00;88.80;;;;;;4171429;28;20045;-61
2021/07/12 09:02:54;;;;;;;9.73;4.30;;;28.80;88.30;;;;;;4172113;28;20032;-63
2021/07/12 09:04:58;;;;;;;5.57;4.35;;;28.60;88.40;;;;;;4171357;28;20418;-63
2021/07/12 09:07:05;;;;;;;9.45;4.32;;;28.40;87.80;;;;;;4171151;28;20429;-62
2021/07/12 09:09:08;;;;;;;4.75;4.25;;;28.40;87.80;;;;;;4171979;28;20436;-62
2021/07/12 09:11:44;;;;;;;6.47;4.55;;;28.40;88.20;;;;;;4171619;28;20432;-62
2021/07/12 09:14:09;;;;;;;11.98;4.88;;;28.60;88.20;;;;;;4169301;28;20086;-61
2021/07/12 09:16:38;;;;;;;7.10;4.70;;;28.50;87.60;;;;;;4161476;28;20052;-61
2021/07/12 09:18:39;;;;;;;7.03;4.40;;;28.50;87.00;;;;;;4171401;28;20044;-62
2021/07/12 09:20:40;;;;;;;6.47;4.47;;;28.50;87.50;;;;;;4187725;28;20533;-62
2021/07/12 09:22:41;;;;;;;6.75;4.95;;;28.50;86.80;;;;;;4175068;28;20048;-62
2021/07/12 09:24:55;;;;;;;6.38;5.25;;;28.50;86.80;;;;;;4171439;28;20025;-63
2021/07/12 09:27:00;;;;;;;8.18;5.63;;;28.50;87.40;;;;;;4170358;28;20138;-61
2021/07/12 09:29:02;;;;;;;12.02;5.72;;;28.50;87.50;;;;;;4171530;28;20091;-61
2021/07/12 09:31:26;;;;;;;8.75;4.18;;;28.60;87.90;;;;;;4171195;28;20037;-61
2021/07/12 09:33:27;;;;;;;8.52;4.60;;;28.70;85.30;;;;;;4171205;28;20029;-62
2021/07/12 09:35:29;;;;;;;8.82;4.60;;;28.80;86.60;;;;;;4170492;28;20118;-62
2021/07/12 09:37:30;;;;;;;10.05;4.38;;;28.80;86.10;;;;;;4171212;28;20029;-62
2021/07/12 09:39:39;;;;;;;5.18;4.63;;;28.80;85.90;;;;;;4174053;28;20474;-62
2021/07/12 09:41:40;;;;;;;10.18;4.60;;;28.90;85.80;;;;;;4173984;28;20078;-61
2021/07/12 09:43:41;;;;;;;6.25;4.78;;;28.80;85.00;;;;;;4173976;28;20037;-61
2021/07/12 09:45:43;;;;;;;9.00;4.60;;;28.80;85.30;;;;;;4174102;28;20033;-62
2021/07/12 09:47:46;;;;;;;6.38;4.53;;;28.80;84.20;;;;;;4174430;28;20082;-62
2021/07/12 09:49:48;;;;;;;7.82;4.80;;;28.90;84.30;;;;;;4174127;28;20090;-62
2021/07/12 09:51:57;;;;;;;5.22;4.53;;;28.90;84.20;;;;;;4174305;28;20033;-61
2021/07/12 09:53:58;;;;;;;6.63;4.18;;;28.90;83.40;;;;;;4173580;28;20385;-61
2021/07/12 09:56:09;;;;;;;4.40;4.10;;;28.90;83.80;;;;;;4174034;28;20044;-61
2021/07/12 09:58:13;;;;;;;9.68;4.72;;;28.90;81.70;;;;;;4173901;28;20087;-66
2021/07/12 10:00:14;;;;;;;6.32;4.10;;;28.80;82.80;;;;;;4174047;28;20021;-61
2021/07/12 10:02:19;;;;;;;8.82;4.35;;;29.00;81.30;;;;;;4173553;28;20405;-62
2021/07/12 10:04:22;;;;;;;4.47;4.07;;;29.00;81.80;;;;;;4173456;28;20009;-61
2021/07/12 10:06:23;;;;;;;5.63;4.55;;;29.00;81.90;;;;;;4173889;28;20102;-61
2021/07/12 10:08:25;;;;;;;7.82;4.18;;;29.00;81.60;;;;;;4174197;28;20045;-60
2021/07/12 10:10:26;;;;;;;6.95;4.70;;;29.10;81.10;;;;;;4173690;28;20094;-62
2021/07/12 10:12:28;;;;;;;8.07;4.35;;;29.10;81.00;;;;;;4173940;28;20037;-63
2021/07/12 10:14:30;;;;;;;6.22;4.30;;;29.10;82.10;;;;;;4173291;28;20037;-62
2021/07/12 10:16:31;;;;;;;5.68;4.60;;;29.20;82.40;;;;;;4173887;28;20167;-63
2021/07/12 10:18:33;;;;;;;8.00;5.10;;;29.20;82.70;;;;;;4173050;28;20113;-62
2021/07/12 10:20:36;;;;;;;9.20;4.38;;;29.10;82.20;;;;;;4173469;28;20033;-62
2021/07/12 10:22:44;;;;;;;6.97;4.38;;;29.10;82.00;;;;;;4173125;28;20075;-61
2021/07/12 10:24:47;;;;;;;4.60;4.18;;;29.10;81.80;;;;;;4173831;28;20025;-61
2021/07/12 10:26:59;;;;;;;6.93;4.57;;;29.10;81.10;;;;;;4173509;28;20465;-61
2021/07/12 10:29:12;;;;;;;7.93;4.20;;;29.30;81.20;;;;;;4173458;28;20542;-63
2021/07/12 10:31:20;;;;;;;8.93;4.57;;;29.50;81.00;;;;;;4174240;28;20045;-62
2021/07/12 10:33:32;;;;;;;5.43;4.53;;;29.60;80.60;;;;;;4188240;28;20098;-62
2021/07/12 10:35:54;;;;;;;6.18;4.25;;;29.70;80.60;;;;;;4173079;28;20977;-63
2021/07/12 10:37:59;;;;;;;8.75;4.00;;;29.50;79.90;;;;;;4173836;28;20107;-62
2021/07/12 10:40:08;;;;;;;5.63;4.20;;;29.30;79.90;;;;;;4173862;28;20049;-62